createdAt,value
2018-03-23T00:00:41.674Z,0
2018-03-23T00:01:41.412Z,0
2018-03-23T00:02:41.722Z,0
2018-03-23T00:03:41.705Z,0
2018-03-23T00:04:41.434Z,0
2018-03-23T00:05:41.732Z,0
2018-03-23T00:06:41.734Z,0
2018-03-23T00:07:41.461Z,0
2018-03-23T00:08:41.467Z,0
2018-03-23T00:09:40.920Z,0
2018-03-23T00:10:40.649Z,0
2018-03-23T00:11:41.233Z,0
2018-03-23T00:12:41.231Z,0
2018-03-23T00:13:41.241Z,0
2018-03-23T00:14:41.590Z,0
2018-03-23T00:15:41.547Z,0
2018-03-23T00:16:41.279Z,0
2018-03-23T00:17:41.864Z,0
2018-03-23T00:18:41.882Z,0
2018-03-23T00:19:41.364Z,0
2018-03-23T00:20:41.324Z,0
2018-03-23T00:21:41.904Z,0
2018-03-23T00:22:41.917Z,0
2018-03-23T00:23:41.926Z,0
2018-03-23T00:24:41.652Z,0
2018-03-23T00:25:41.988Z,0
2018-03-23T00:26:41.398Z,0
2018-03-23T00:27:41.684Z,0
2018-03-23T00:28:41.413Z,0
2018-03-23T00:29:41.992Z,0
2018-03-23T00:30:41.429Z,0
2018-03-23T00:31:42.006Z,0
2018-03-23T00:32:41.454Z,0
2018-03-23T00:33:42.029Z,0
2018-03-23T00:34:41.756Z,0
2018-03-23T00:35:41.491Z,0
2018-03-23T00:36:41.496Z,0
2018-03-23T00:37:41.791Z,0
2018-03-23T00:38:41.517Z,0
2018-03-23T00:39:41.529Z,0
2018-03-23T00:40:41.539Z,0
2018-03-23T00:41:42.148Z,0
2018-03-23T00:42:41.283Z,0
2018-03-23T00:43:41.867Z,0
2018-03-23T00:44:42.219Z,0
2018-03-23T00:45:41.874Z,0
2018-03-23T00:46:41.607Z,0
2018-03-23T00:47:42.196Z,0
2018-03-23T00:48:41.921Z,0
2018-03-23T00:49:42.268Z,0
2018-03-23T00:50:41.938Z,0
2018-03-23T00:51:42.230Z,0
2018-03-23T00:52:41.954Z,0
2018-03-23T00:53:41.406Z,0
2018-03-23T00:54:42.020Z,0
2018-03-23T00:55:41.434Z,0
2018-03-23T00:56:41.436Z,0
2018-03-23T00:57:42.016Z,0
2018-03-23T00:58:42.021Z,0
2018-03-23T00:59:42.144Z,0
2018-03-23T01:00:42.044Z,0
2018-03-23T01:01:42.052Z,0
2018-03-23T01:02:41.501Z,0
2018-03-23T01:03:42.082Z,0
2018-03-23T01:04:42.374Z,0
2018-03-23T01:05:42.096Z,0
2018-03-23T01:06:41.905Z,0
2018-03-23T01:07:42.133Z,0
2018-03-23T01:08:41.866Z,0
2018-03-23T01:09:42.149Z,0
2018-03-23T01:10:42.439Z,0
2018-03-23T01:11:41.881Z,0
2018-03-23T01:12:41.607Z,0
2018-03-23T01:13:41.904Z,0
2018-03-23T01:14:41.750Z,0
2018-03-23T01:15:42.219Z,0
2018-03-23T01:16:41.936Z,0
2018-03-23T01:17:42.527Z,0
2018-03-23T01:18:41.966Z,0
2018-03-23T01:19:41.684Z,0
2018-03-23T01:20:42.006Z,0
2018-03-23T01:21:41.993Z,0
2018-03-23T01:22:42.294Z,0
2018-03-23T01:23:42.007Z,0
2018-03-23T01:24:42.025Z,0
2018-03-23T01:25:42.035Z,0
2018-03-23T01:26:42.331Z,0
2018-03-23T01:27:42.342Z,0
2018-03-23T01:28:41.789Z,0
2018-03-23T01:29:42.083Z,0
2018-03-23T01:30:42.387Z,0
2018-03-23T01:31:42.390Z,0
2018-03-23T01:32:41.831Z,0
2018-03-23T01:33:42.130Z,0
2018-03-23T01:34:42.437Z,0
2018-03-23T01:35:42.150Z,0
2018-03-23T01:36:42.506Z,0
2018-03-23T01:37:42.173Z,0
2018-03-23T01:38:41.899Z,0
2018-03-23T01:39:42.529Z,0
2018-03-23T01:40:42.216Z,0
2018-03-23T01:41:42.234Z,0
2018-03-23T01:42:42.798Z,0
2018-03-23T01:43:42.516Z,0
2018-03-23T01:44:42.820Z,0
2018-03-23T01:45:42.831Z,0
2018-03-23T01:46:42.560Z,0
2018-03-23T01:47:42.284Z,0
2018-03-23T01:48:42.873Z,0
2018-03-23T01:49:42.649Z,0
2018-03-23T01:50:42.597Z,0
2018-03-23T01:51:42.041Z,0
2018-03-23T01:52:42.913Z,0
2018-03-23T01:53:42.627Z,0
2018-03-23T01:54:42.923Z,0
2018-03-23T01:55:42.647Z,0
2018-03-23T01:56:42.672Z,0
2018-03-23T01:57:42.692Z,0
2018-03-23T01:58:42.408Z,0
2018-03-23T01:59:42.412Z,0
2018-03-23T02:00:42.425Z,0
2018-03-23T02:01:43.004Z,0
2018-03-23T02:02:42.444Z,0
2018-03-23T02:03:42.744Z,0
2018-03-23T02:04:42.181Z,0
2018-03-23T02:05:42.481Z,0
2018-03-23T02:06:42.783Z,0
2018-03-23T02:07:42.787Z,0
2018-03-23T02:08:42.799Z,0
2018-03-23T02:09:42.256Z,0
2018-03-23T02:10:42.561Z,0
2018-03-23T02:11:42.826Z,0
2018-03-23T02:12:42.831Z,0
2018-03-23T02:13:42.841Z,0
2018-03-23T02:14:42.854Z,0
2018-03-23T02:15:42.864Z,0
2018-03-23T02:16:43.164Z,0
2018-03-23T02:17:42.605Z,0
2018-03-23T02:18:42.901Z,0
2018-03-23T02:19:42.918Z,0
2018-03-23T02:20:42.688Z,0
2018-03-23T02:21:42.998Z,0
2018-03-23T02:22:42.949Z,0
2018-03-23T02:23:42.954Z,0
2018-03-23T02:24:43.272Z,0
2018-03-23T02:25:43.273Z,0
2018-03-23T02:26:42.708Z,0
2018-03-23T02:27:42.148Z,0
2018-03-23T02:28:42.746Z,0
2018-03-23T02:29:43.302Z,0
2018-03-23T02:30:43.089Z,0
2018-03-23T02:31:43.061Z,0
2018-03-23T02:32:43.346Z,0
2018-03-23T02:33:43.078Z,0
2018-03-23T02:34:43.370Z,0
2018-03-23T02:35:42.525Z,0
2018-03-23T02:36:43.395Z,0
2018-03-23T02:37:43.419Z,0
2018-03-23T02:38:43.126Z,0
2018-03-23T02:39:43.139Z,0
2018-03-23T02:40:43.145Z,0
2018-03-23T02:41:42.305Z,0
2018-03-23T02:42:43.453Z,0
2018-03-23T02:43:42.904Z,0
2018-03-23T02:44:43.208Z,0
2018-03-23T02:45:42.347Z,0
2018-03-23T02:46:43.218Z,0
2018-03-23T02:47:43.502Z,0
2018-03-23T02:48:43.240Z,0
2018-03-23T02:49:43.545Z,0
2018-03-23T02:50:43.588Z,0
2018-03-23T02:51:42.982Z,0
2018-03-23T02:52:43.558Z,0
2018-03-23T02:53:43.583Z,0
2018-03-23T02:54:43.645Z,0
2018-03-23T02:55:43.022Z,0
2018-03-23T02:56:43.044Z,0
2018-03-23T02:57:43.621Z,0
2018-03-23T02:58:43.356Z,0
2018-03-23T02:59:43.367Z,0
2018-03-23T03:00:43.375Z,0
2018-03-23T03:01:42.859Z,0
2018-03-23T03:02:43.677Z,0
2018-03-23T03:03:43.415Z,0
2018-03-23T03:04:43.126Z,0
2018-03-23T03:05:43.706Z,0
2018-03-23T03:06:43.732Z,0
2018-03-23T03:07:43.156Z,0
2018-03-23T03:08:43.457Z,0
2018-03-23T03:09:43.464Z,0
2018-03-23T03:10:43.762Z,0
2018-03-23T03:11:43.481Z,0
2018-03-23T03:12:42.928Z,0
2018-03-23T03:13:43.805Z,0
2018-03-23T03:14:43.233Z,0
2018-03-23T03:15:43.255Z,0
2018-03-23T03:16:43.598Z,0
2018-03-23T03:17:43.859Z,0
2018-03-23T03:18:43.277Z,0
2018-03-23T03:19:43.573Z,0
2018-03-23T03:20:43.874Z,0
2018-03-23T03:21:43.926Z,0
2018-03-23T03:22:43.606Z,0
2018-03-23T03:23:43.335Z,0
2018-03-23T03:24:43.354Z,0
2018-03-23T03:25:43.643Z,0
2018-03-23T03:26:43.650Z,0
2018-03-23T03:27:43.386Z,0
2018-03-23T03:28:43.976Z,0
2018-03-23T03:29:43.400Z,0
2018-03-23T03:30:43.424Z,0
2018-03-23T03:31:44.008Z,0
2018-03-23T03:32:43.728Z,0
2018-03-23T03:33:43.445Z,0
2018-03-23T03:34:43.483Z,0
2018-03-23T03:35:44.037Z,0
2018-03-23T03:36:43.759Z,0
2018-03-23T03:37:44.056Z,0
2018-03-23T03:38:43.788Z,0
2018-03-23T03:39:43.510Z,0
2018-03-23T03:40:43.522Z,0
2018-03-23T03:41:43.865Z,0
2018-03-23T03:42:44.115Z,0
2018-03-23T03:43:44.153Z,0
2018-03-23T03:44:43.851Z,0
2018-03-23T03:45:43.867Z,0
2018-03-23T03:46:43.922Z,0
2018-03-23T03:47:44.165Z,0
2018-03-23T03:48:44.177Z,0
2018-03-23T03:49:43.915Z,0
2018-03-23T03:50:43.915Z,0
2018-03-23T03:51:43.363Z,0
2018-03-23T03:52:43.946Z,0
2018-03-23T03:53:43.951Z,0
2018-03-23T03:54:43.706Z,0
2018-03-23T03:55:43.694Z,0
2018-03-23T03:56:43.699Z,0
2018-03-23T03:57:43.708Z,0
2018-03-23T03:58:44.307Z,0
2018-03-23T03:59:44.019Z,0
2018-03-23T04:00:44.309Z,0
2018-03-23T04:01:44.034Z,0
2018-03-23T04:02:44.047Z,0
2018-03-23T04:03:43.775Z,0
2018-03-23T04:04:44.359Z,0
2018-03-23T04:05:43.231Z,0
2018-03-23T04:06:43.528Z,0
2018-03-23T04:07:44.104Z,0
2018-03-23T04:08:44.522Z,0
2018-03-23T04:09:43.852Z,0
2018-03-23T04:10:43.861Z,0
2018-03-23T04:11:43.916Z,0
2018-03-23T04:12:43.876Z,0
2018-03-23T04:13:44.178Z,0
2018-03-23T04:14:44.224Z,0
2018-03-23T04:15:44.202Z,0
2018-03-23T04:16:43.639Z,0
2018-03-23T04:17:43.931Z,0
2018-03-23T04:18:44.227Z,0
2018-03-23T04:19:44.082Z,0
2018-03-23T04:20:44.248Z,0
2018-03-23T04:21:43.754Z,0
2018-03-23T04:22:44.555Z,0
2018-03-23T04:23:44.003Z,0
2018-03-23T04:24:44.011Z,0
2018-03-23T04:25:44.305Z,0
2018-03-23T04:26:44.085Z,0
2018-03-23T04:27:44.045Z,0
2018-03-23T04:28:44.058Z,0
2018-03-23T04:29:44.065Z,0
2018-03-23T04:30:44.076Z,0
2018-03-23T04:31:43.826Z,0
2018-03-23T04:32:44.383Z,0
2018-03-23T04:33:43.834Z,0
2018-03-23T04:34:43.840Z,0
2018-03-23T04:35:44.132Z,0
2018-03-23T04:36:44.482Z,0
2018-03-23T04:37:44.209Z,0
2018-03-23T04:38:44.446Z,0
2018-03-23T04:39:44.533Z,0
2018-03-23T04:40:44.482Z,0
2018-03-23T04:41:44.480Z,0
2018-03-23T04:42:44.775Z,0
2018-03-23T04:43:44.515Z,0
2018-03-23T04:44:44.516Z,0
2018-03-23T04:45:44.528Z,0
2018-03-23T04:46:44.591Z,0
2018-03-23T04:47:44.265Z,0
2018-03-23T04:48:44.850Z,0
2018-03-23T04:49:44.008Z,0
2018-03-23T04:50:44.863Z,0
2018-03-23T04:51:44.365Z,0
2018-03-23T04:52:44.321Z,0
2018-03-23T04:53:44.623Z,0
2018-03-23T04:54:44.629Z,0
2018-03-23T04:55:44.646Z,0
2018-03-23T04:56:44.939Z,0
2018-03-23T04:57:44.665Z,0
2018-03-23T04:58:44.395Z,0
2018-03-23T04:59:44.683Z,0
2018-03-23T05:00:44.410Z,0
2018-03-23T05:01:44.994Z,0
2018-03-23T05:02:44.449Z,0
2018-03-23T05:03:44.748Z,0
2018-03-23T05:04:44.455Z,0
2018-03-23T05:05:44.470Z,0
2018-03-23T05:06:44.198Z,0
2018-03-23T05:07:44.205Z,0
2018-03-23T05:08:45.063Z,0
2018-03-23T05:09:45.083Z,0
2018-03-23T05:10:44.534Z,0
2018-03-23T05:11:44.259Z,0
2018-03-23T05:12:44.259Z,0
2018-03-23T05:13:45.131Z,0
2018-03-23T05:14:45.040Z,0
2018-03-23T05:15:44.860Z,0
2018-03-23T05:16:44.869Z,0
2018-03-23T05:17:44.605Z,0
2018-03-23T05:18:44.612Z,0
2018-03-23T05:19:45.192Z,0
2018-03-23T05:20:44.639Z,0
2018-03-23T05:21:44.934Z,0
2018-03-23T05:22:44.673Z,0
2018-03-23T05:23:44.953Z,0
2018-03-23T05:24:45.010Z,0
2018-03-23T05:25:44.699Z,0
2018-03-23T05:26:44.708Z,0
2018-03-23T05:27:44.715Z,0
2018-03-23T05:28:44.727Z,0
2018-03-23T05:29:45.301Z,0
2018-03-23T05:30:45.315Z,0
2018-03-23T05:31:44.892Z,0
2018-03-23T05:32:46.043Z,0
2018-03-23T05:33:45.269Z,0
2018-03-23T05:34:45.384Z,0
2018-03-23T05:35:45.379Z,0
2018-03-23T05:36:45.125Z,0
2018-03-23T05:37:45.106Z,0
2018-03-23T05:38:45.119Z,0
2018-03-23T05:39:44.564Z,0
2018-03-23T05:40:44.980Z,0
2018-03-23T05:41:44.590Z,0
2018-03-23T05:42:45.445Z,0
2018-03-23T05:43:45.243Z,0
2018-03-23T05:44:44.620Z,0
2018-03-23T05:45:45.010Z,0
2018-03-23T05:46:44.926Z,0
2018-03-23T05:47:45.501Z,0
2018-03-23T05:48:45.237Z,0
2018-03-23T05:49:45.520Z,0
2018-03-23T05:50:45.550Z,0
2018-03-23T05:51:45.573Z,0
2018-03-23T05:52:45.555Z,0
2018-03-23T05:53:45.573Z,0
2018-03-23T05:54:45.293Z,0
2018-03-23T05:55:45.317Z,0
2018-03-23T05:56:45.327Z,0
2018-03-23T05:57:45.125Z,0
2018-03-23T05:58:45.631Z,0
2018-03-23T05:59:45.662Z,0
2018-03-23T06:00:44.797Z,0
2018-03-23T06:01:45.377Z,0
2018-03-23T06:02:45.154Z,0
2018-03-23T06:03:45.398Z,0
2018-03-23T06:04:45.462Z,0
2018-03-23T06:05:45.708Z,0
2018-03-23T06:06:44.583Z,0
2018-03-23T06:07:45.169Z,0
2018-03-23T06:08:45.199Z,0
2018-03-23T06:09:45.817Z,0
2018-03-23T06:10:45.481Z,0
2018-03-23T06:11:45.501Z,0
2018-03-23T06:12:45.499Z,0
2018-03-23T06:13:45.510Z,0
2018-03-23T06:14:45.526Z,0
2018-03-23T06:15:45.254Z,0
2018-03-23T06:16:45.546Z,0
2018-03-23T06:17:45.385Z,0
2018-03-23T06:18:45.538Z,0
2018-03-23T06:19:45.578Z,0
2018-03-23T06:20:46.082Z,0
2018-03-23T06:21:45.318Z,0
2018-03-23T06:22:46.131Z,0
2018-03-23T06:23:45.907Z,0
2018-03-23T06:24:45.636Z,0
2018-03-23T06:25:45.367Z,0
2018-03-23T06:26:45.960Z,0
2018-03-23T06:27:45.701Z,0
2018-03-23T06:28:45.976Z,0
2018-03-23T06:29:45.132Z,0
2018-03-23T06:30:45.707Z,0
2018-03-23T06:31:45.996Z,0
2018-03-23T06:32:45.498Z,0
2018-03-23T06:33:44.886Z,0
2018-03-23T06:34:46.036Z,0
2018-03-23T06:35:45.766Z,0
2018-03-23T06:36:46.054Z,0
2018-03-23T06:37:45.551Z,0
2018-03-23T06:38:45.804Z,0
2018-03-23T06:39:46.286Z,0
2018-03-23T06:40:45.827Z,0
2018-03-23T06:41:45.564Z,0
2018-03-23T06:42:45.838Z,0
2018-03-23T06:43:45.576Z,0
2018-03-23T06:44:45.583Z,0
2018-03-23T06:45:45.597Z,0
2018-03-23T06:46:45.619Z,0
2018-03-23T06:47:46.180Z,0
2018-03-23T06:48:45.989Z,0
2018-03-23T06:49:45.356Z,0
2018-03-23T06:50:45.362Z,0
2018-03-23T06:51:45.655Z,0
2018-03-23T06:52:45.668Z,0
2018-03-23T06:53:45.680Z,0
2018-03-23T06:54:45.976Z,0
2018-03-23T06:55:45.992Z,0
2018-03-23T06:56:46.287Z,0
2018-03-23T06:57:46.413Z,0
2018-03-23T06:58:46.023Z,0
2018-03-23T06:59:45.753Z,5
2018-03-23T07:00:46.344Z,5
2018-03-23T07:01:46.073Z,5
2018-03-23T07:02:45.504Z,0
2018-03-23T07:03:45.855Z,0
2018-03-23T07:04:46.095Z,0
2018-03-23T07:05:46.101Z,0
2018-03-23T07:06:46.112Z,0
2018-03-23T07:07:46.411Z,0
2018-03-23T07:08:46.442Z,0
2018-03-23T07:09:46.154Z,0
2018-03-23T07:10:46.440Z,0
2018-03-23T07:11:46.167Z,0
2018-03-23T07:12:46.191Z,0
2018-03-23T07:13:45.640Z,0
2018-03-23T07:14:46.209Z,0
2018-03-23T07:15:46.545Z,0
2018-03-23T07:16:46.508Z,0
2018-03-23T07:17:45.969Z,0
2018-03-23T07:18:46.546Z,0
2018-03-23T07:19:46.554Z,0
2018-03-23T07:20:45.710Z,0
2018-03-23T07:21:46.283Z,0
2018-03-23T07:22:45.732Z,0
2018-03-23T07:23:46.026Z,5
2018-03-23T07:24:46.033Z,5
2018-03-23T07:25:45.763Z,5
2018-03-23T07:26:46.068Z,5
2018-03-23T07:27:46.630Z,5
2018-03-23T07:28:46.440Z,5
2018-03-23T07:29:45.810Z,5
2018-03-23T07:30:46.381Z,5
2018-03-23T07:31:46.408Z,5
2018-03-23T07:32:46.128Z,5
2018-03-23T07:33:46.194Z,5
2018-03-23T07:34:46.154Z,5
2018-03-23T07:35:46.458Z,5
2018-03-23T07:36:46.452Z,5
2018-03-23T07:37:46.972Z,5
2018-03-23T07:38:46.492Z,10
2018-03-23T07:39:46.221Z,10
2018-03-23T07:40:46.217Z,10
2018-03-23T07:41:45.949Z,10
2018-03-23T07:42:46.244Z,10
2018-03-23T07:43:46.020Z,10
2018-03-23T07:44:46.545Z,10
2018-03-23T07:45:46.849Z,10
2018-03-23T07:46:46.851Z,10
2018-03-23T07:47:46.585Z,10
2018-03-23T07:48:46.600Z,10
2018-03-23T07:49:46.640Z,10
2018-03-23T07:50:46.053Z,10
2018-03-23T07:51:46.347Z,15
2018-03-23T07:52:46.656Z,15
2018-03-23T07:53:46.789Z,10
2018-03-23T07:54:46.663Z,10
2018-03-23T07:55:46.677Z,15
2018-03-23T07:56:46.403Z,15
2018-03-23T07:57:46.420Z,15
2018-03-23T07:58:46.722Z,10
2018-03-23T07:59:46.726Z,10
2018-03-23T08:00:46.743Z,10
2018-03-23T08:01:46.465Z,10
2018-03-23T08:02:47.038Z,10
2018-03-23T08:03:46.388Z,15
2018-03-23T08:04:46.499Z,15
2018-03-23T08:05:46.793Z,15
2018-03-23T08:06:46.805Z,15
2018-03-23T08:07:46.821Z,15
2018-03-23T08:08:46.829Z,15
2018-03-23T08:09:47.391Z,20
2018-03-23T08:10:46.868Z,15
2018-03-23T08:11:46.864Z,15
2018-03-23T08:12:46.599Z,15
2018-03-23T08:13:46.665Z,15
2018-03-23T08:14:47.190Z,15
2018-03-23T08:15:46.929Z,15
2018-03-23T08:16:46.646Z,15
2018-03-23T08:17:46.937Z,20
2018-03-23T08:18:46.726Z,20
2018-03-23T08:19:46.692Z,15
2018-03-23T08:20:46.974Z,15
2018-03-23T08:21:46.706Z,15
2018-03-23T08:22:47.295Z,20
2018-03-23T08:23:46.452Z,20
2018-03-23T08:24:47.018Z,20
2018-03-23T08:25:47.032Z,25
2018-03-23T08:26:47.096Z,25
2018-03-23T08:27:46.776Z,25
2018-03-23T08:28:46.501Z,25
2018-03-23T08:29:46.800Z,25
2018-03-23T08:30:47.376Z,25
2018-03-23T08:31:47.409Z,20
2018-03-23T08:32:47.444Z,20
2018-03-23T08:33:47.460Z,20
2018-03-23T08:34:47.424Z,25
2018-03-23T08:35:46.874Z,25
2018-03-23T08:36:47.176Z,25
2018-03-23T08:37:46.906Z,25
2018-03-23T08:38:46.346Z,25
2018-03-23T08:39:47.211Z,25
2018-03-23T08:40:46.647Z,25
2018-03-23T08:41:46.969Z,25
2018-03-23T08:42:46.965Z,30
2018-03-23T08:43:47.325Z,35
2018-03-23T08:44:47.422Z,35
2018-03-23T08:45:47.276Z,30
2018-03-23T08:46:47.302Z,30
2018-03-23T08:47:47.038Z,30
2018-03-23T08:48:47.313Z,30
2018-03-23T08:49:47.336Z,30
2018-03-23T08:50:47.630Z,30
2018-03-23T08:51:47.651Z,30
2018-03-23T08:52:47.649Z,35
2018-03-23T08:53:46.819Z,30
2018-03-23T08:54:47.443Z,30
2018-03-23T08:55:47.117Z,30
2018-03-23T08:56:47.413Z,25
2018-03-23T08:57:47.141Z,25
2018-03-23T08:58:46.873Z,30
2018-03-23T08:59:47.502Z,30
2018-03-23T09:00:46.617Z,30
2018-03-23T09:01:47.482Z,25
2018-03-23T09:02:47.490Z,30
2018-03-23T09:03:47.218Z,35
2018-03-23T09:04:47.229Z,30
2018-03-23T09:05:47.250Z,30
2018-03-23T09:06:47.264Z,30
2018-03-23T09:07:47.836Z,35
2018-03-23T09:08:47.279Z,35
2018-03-23T09:09:47.710Z,30
2018-03-23T09:10:47.875Z,35
2018-03-23T09:11:47.886Z,35
2018-03-23T09:12:47.904Z,30
2018-03-23T09:13:47.060Z,30
2018-03-23T09:14:47.694Z,30
2018-03-23T09:15:47.952Z,30
2018-03-23T09:16:47.860Z,30
2018-03-23T09:17:47.684Z,30
2018-03-23T09:18:47.696Z,30
2018-03-23T09:19:47.423Z,25
2018-03-23T09:20:47.811Z,25
2018-03-23T09:21:47.775Z,30
2018-03-23T09:22:47.460Z,30
2018-03-23T09:23:48.045Z,25
2018-03-23T09:24:47.254Z,25
2018-03-23T09:25:47.501Z,30
2018-03-23T09:26:48.009Z,30
2018-03-23T09:27:47.814Z,30
2018-03-23T09:28:47.539Z,30
2018-03-23T09:29:47.564Z,30
2018-03-23T09:30:47.857Z,30
2018-03-23T09:31:47.863Z,30
2018-03-23T09:32:48.161Z,30
2018-03-23T09:33:47.887Z,30
2018-03-23T09:34:48.201Z,30
2018-03-23T09:35:47.631Z,25
2018-03-23T09:36:47.369Z,25
2018-03-23T09:37:48.235Z,30
2018-03-23T09:38:47.390Z,25
2018-03-23T09:39:47.698Z,30
2018-03-23T09:40:48.265Z,25
2018-03-23T09:41:47.996Z,25
2018-03-23T09:42:48.292Z,20
2018-03-23T09:43:47.737Z,20
2018-03-23T09:44:48.085Z,20
2018-03-23T09:45:48.053Z,20
2018-03-23T09:46:48.065Z,20
2018-03-23T09:47:48.075Z,25
2018-03-23T09:48:48.183Z,25
2018-03-23T09:49:48.102Z,30
2018-03-23T09:50:48.400Z,25
2018-03-23T09:51:48.128Z,25
2018-03-23T09:52:48.143Z,25
2018-03-23T09:53:48.452Z,25
2018-03-23T09:54:47.886Z,20
2018-03-23T09:55:47.899Z,20
2018-03-23T09:56:48.485Z,25
2018-03-23T09:57:47.641Z,15
2018-03-23T09:58:48.240Z,15
2018-03-23T09:59:48.520Z,15
2018-03-23T10:00:47.964Z,25
2018-03-23T10:01:48.270Z,30
2018-03-23T10:02:48.559Z,25
2018-03-23T10:03:48.214Z,20
2018-03-23T10:04:48.606Z,25
2018-03-23T10:05:47.752Z,45
2018-03-23T10:06:48.335Z,50
2018-03-23T10:07:48.629Z,45
2018-03-23T10:08:47.800Z,40
2018-03-23T10:09:48.087Z,40
2018-03-23T10:10:47.829Z,40
2018-03-23T10:11:48.403Z,30
2018-03-23T10:12:48.426Z,40
2018-03-23T10:13:48.146Z,50
2018-03-23T10:14:48.160Z,50
2018-03-23T10:15:48.172Z,35
2018-03-23T10:16:48.746Z,30
2018-03-23T10:17:48.476Z,45
2018-03-23T10:18:48.803Z,55
2018-03-23T10:19:48.852Z,50
2018-03-23T10:20:48.686Z,50
2018-03-23T10:21:49.025Z,45
2018-03-23T10:22:48.264Z,50
2018-03-23T10:23:48.849Z,45
2018-03-23T10:24:48.060Z,35
2018-03-23T10:25:48.880Z,35
2018-03-23T10:26:48.321Z,35
2018-03-23T10:27:48.624Z,45
2018-03-23T10:28:48.764Z,45
2018-03-23T10:29:48.079Z,55
2018-03-23T10:30:48.668Z,45
2018-03-23T10:31:48.971Z,45
2018-03-23T10:32:48.691Z,40
2018-03-23T10:33:48.727Z,45
2018-03-23T10:34:48.154Z,45
2018-03-23T10:35:48.503Z,45
2018-03-23T10:36:48.754Z,40
2018-03-23T10:37:48.190Z,40
2018-03-23T10:38:48.499Z,55
2018-03-23T10:39:47.934Z,50
2018-03-23T10:40:48.234Z,50
2018-03-23T10:41:48.245Z,50
2018-03-23T10:42:48.544Z,50
2018-03-23T10:43:48.842Z,45
2018-03-23T10:44:48.904Z,40
2018-03-23T10:45:49.146Z,45
2018-03-23T10:46:48.358Z,50
2018-03-23T10:47:48.612Z,45
2018-03-23T10:48:48.633Z,40
2018-03-23T10:49:48.077Z,45
2018-03-23T10:50:48.942Z,45
2018-03-23T10:51:48.964Z,45
2018-03-23T10:52:49.090Z,40
2018-03-23T10:53:48.702Z,50
2018-03-23T10:54:48.997Z,55
2018-03-23T10:55:49.063Z,55
2018-03-23T10:56:48.744Z,45
2018-03-23T10:57:49.039Z,50
2018-03-23T10:58:49.057Z,50
2018-03-23T10:59:48.809Z,40
2018-03-23T11:00:49.113Z,50
2018-03-23T11:01:48.534Z,50
2018-03-23T11:02:48.855Z,35
2018-03-23T11:03:48.844Z,35
2018-03-23T11:04:49.141Z,55
2018-03-23T11:05:48.878Z,45
2018-03-23T11:06:49.466Z,45
2018-03-23T11:07:49.210Z,55
2018-03-23T11:08:49.201Z,40
2018-03-23T11:09:48.934Z,30
2018-03-23T11:10:48.956Z,40
2018-03-23T11:11:48.961Z,45
2018-03-23T11:12:49.549Z,40
2018-03-23T11:13:49.283Z,35
2018-03-23T11:14:49.012Z,50
2018-03-23T11:15:49.665Z,50
2018-03-23T11:16:49.327Z,50
2018-03-23T11:17:49.338Z,50
2018-03-23T11:18:49.359Z,50
2018-03-23T11:19:49.370Z,55
2018-03-23T11:20:48.877Z,50
2018-03-23T11:21:48.872Z,35
2018-03-23T11:22:49.129Z,35
2018-03-23T11:23:49.712Z,40
2018-03-23T11:24:48.876Z,30
2018-03-23T11:25:49.744Z,25
2018-03-23T11:26:49.196Z,30
2018-03-23T11:27:49.205Z,35
2018-03-23T11:28:49.793Z,30
2018-03-23T11:29:48.947Z,30
2018-03-23T11:30:48.967Z,30
2018-03-23T11:31:49.829Z,25
2018-03-23T11:32:49.564Z,30
2018-03-23T11:33:49.010Z,45
2018-03-23T11:34:49.885Z,55
2018-03-23T11:35:49.656Z,55
2018-03-23T11:36:49.906Z,40
2018-03-23T11:37:49.927Z,30
2018-03-23T11:38:49.649Z,30
2018-03-23T11:39:49.664Z,35
2018-03-23T11:40:49.399Z,40
2018-03-23T11:41:49.711Z,35
2018-03-23T11:42:49.428Z,30
2018-03-23T11:43:49.724Z,25
2018-03-23T11:44:50.196Z,20
2018-03-23T11:45:49.470Z,15
2018-03-23T11:46:49.482Z,15
2018-03-23T11:47:49.500Z,20
2018-03-23T11:48:49.800Z,25
2018-03-23T11:49:49.254Z,35
2018-03-23T11:50:49.052Z,45
2018-03-23T11:51:49.571Z,35
2018-03-23T11:52:50.155Z,30
2018-03-23T11:53:49.027Z,35
2018-03-23T11:54:49.610Z,35
2018-03-23T11:55:49.904Z,35
2018-03-23T11:56:49.925Z,35
2018-03-23T11:57:49.939Z,45
2018-03-23T11:58:49.956Z,45
2018-03-23T11:59:50.260Z,40
2018-03-23T12:00:50.037Z,35
2018-03-23T12:01:50.297Z,30
2018-03-23T12:02:50.022Z,30
2018-03-23T12:03:50.319Z,25
2018-03-23T12:04:49.766Z,25
2018-03-23T12:05:49.788Z,35
2018-03-23T12:06:50.077Z,40
2018-03-23T12:07:49.809Z,40
2018-03-23T12:08:50.381Z,40
2018-03-23T12:09:49.836Z,45
2018-03-23T12:10:50.470Z,45
2018-03-23T12:11:50.152Z,50
2018-03-23T12:12:50.166Z,50
2018-03-23T12:13:50.182Z,55
2018-03-23T12:14:49.916Z,55
2018-03-23T12:15:49.927Z,55
2018-03-23T12:16:50.234Z,50
2018-03-23T12:17:50.521Z,40
2018-03-23T12:18:50.539Z,35
2018-03-23T12:19:49.703Z,40
2018-03-23T12:20:50.070Z,45
2018-03-23T12:21:50.022Z,40
2018-03-23T12:22:50.614Z,35
2018-03-23T12:23:50.338Z,30
2018-03-23T12:24:50.065Z,25
2018-03-23T12:25:49.796Z,30
2018-03-23T12:26:50.094Z,30
2018-03-23T12:27:50.686Z,30
2018-03-23T12:28:50.151Z,30
2018-03-23T12:29:50.139Z,40
2018-03-23T12:30:50.783Z,40
2018-03-23T12:31:50.460Z,35
2018-03-23T12:32:50.760Z,25
2018-03-23T12:33:50.769Z,25
2018-03-23T12:34:50.643Z,20
2018-03-23T12:35:50.807Z,25
2018-03-23T12:36:50.536Z,25
2018-03-23T12:37:50.904Z,25
2018-03-23T12:38:50.004Z,30
2018-03-23T12:39:50.305Z,35
2018-03-23T12:40:50.320Z,30
2018-03-23T12:41:50.383Z,45
2018-03-23T12:42:50.914Z,50
2018-03-23T12:43:50.657Z,55
2018-03-23T12:44:50.395Z,55
2018-03-23T12:45:50.456Z,45
2018-03-23T12:46:50.771Z,45
2018-03-23T12:47:50.705Z,45
2018-03-23T12:48:50.156Z,40
2018-03-23T12:49:51.018Z,35
2018-03-23T12:50:50.475Z,40
2018-03-23T12:51:50.885Z,35
2018-03-23T12:52:50.216Z,40
2018-03-23T12:53:51.089Z,50
2018-03-23T12:54:50.534Z,50
2018-03-23T12:55:50.553Z,50
2018-03-23T12:56:51.130Z,55
2018-03-23T12:57:50.337Z,50
2018-03-23T12:58:50.884Z,50
2018-03-23T12:59:50.890Z,60
2018-03-23T13:00:50.924Z,60
2018-03-23T13:01:50.698Z,55
2018-03-23T13:02:50.373Z,45
2018-03-23T13:03:51.127Z,50
2018-03-23T13:04:50.977Z,45
2018-03-23T13:05:50.714Z,45
2018-03-23T13:06:51.355Z,40
2018-03-23T13:07:51.314Z,30
2018-03-23T13:08:51.327Z,35
2018-03-23T13:09:51.063Z,35
2018-03-23T13:10:50.784Z,35
2018-03-23T13:11:51.368Z,35
2018-03-23T13:12:50.533Z,45
2018-03-23T13:13:51.114Z,50
2018-03-23T13:14:50.648Z,50
2018-03-23T13:15:50.874Z,60
2018-03-23T13:16:51.224Z,60
2018-03-23T13:17:51.188Z,45
2018-03-23T13:18:50.922Z,40
2018-03-23T13:19:51.275Z,40
2018-03-23T13:20:50.955Z,40
2018-03-23T13:21:51.252Z,45
2018-03-23T13:22:51.298Z,40
2018-03-23T13:23:51.281Z,35
2018-03-23T13:24:51.016Z,35
2018-03-23T13:25:51.035Z,35
2018-03-23T13:26:51.387Z,40
2018-03-23T13:27:51.346Z,45
2018-03-23T13:28:51.377Z,50
2018-03-23T13:29:51.384Z,45
2018-03-23T13:30:51.692Z,45
2018-03-23T13:31:51.753Z,45
2018-03-23T13:32:50.860Z,50
2018-03-23T13:33:51.163Z,50
2018-03-23T13:34:50.899Z,55
2018-03-23T13:35:51.198Z,60
2018-03-23T13:36:51.782Z,55
2018-03-23T13:37:51.239Z,50
2018-03-23T13:38:50.971Z,50
2018-03-23T13:39:51.575Z,50
2018-03-23T13:40:50.994Z,45
2018-03-23T13:41:51.010Z,35
2018-03-23T13:42:50.748Z,30
2018-03-23T13:43:51.913Z,30
2018-03-23T13:44:52.136Z,35
2018-03-23T13:45:51.651Z,35
2018-03-23T13:46:51.680Z,40
2018-03-23T13:47:51.394Z,40
2018-03-23T13:48:51.712Z,40
2018-03-23T13:49:51.441Z,40
2018-03-23T13:50:51.741Z,40
2018-03-23T13:51:52.056Z,45
2018-03-23T13:52:51.774Z,40
2018-03-23T13:53:51.496Z,45
2018-03-23T13:54:52.088Z,45
2018-03-23T13:55:51.541Z,35
2018-03-23T13:56:51.551Z,30
2018-03-23T13:57:51.569Z,30
2018-03-23T13:58:52.154Z,40
2018-03-23T13:59:51.894Z,40
2018-03-23T14:00:51.921Z,40
2018-03-23T14:01:51.635Z,40
2018-03-23T14:02:51.656Z,40
2018-03-23T14:03:52.242Z,40
2018-03-23T14:04:52.262Z,40
2018-03-23T14:05:51.425Z,40
2018-03-23T14:06:51.731Z,40
2018-03-23T14:07:51.764Z,35
2018-03-23T14:08:51.825Z,35
2018-03-23T14:09:52.346Z,30
2018-03-23T14:10:52.080Z,35
2018-03-23T14:11:51.534Z,35
2018-03-23T14:12:52.395Z,30
2018-03-23T14:13:51.855Z,30
2018-03-23T14:14:52.150Z,30
2018-03-23T14:15:52.457Z,30
2018-03-23T14:16:51.900Z,25
2018-03-23T14:17:52.584Z,25
2018-03-23T14:18:52.509Z,25
2018-03-23T14:19:51.670Z,25
2018-03-23T14:20:52.539Z,25
2018-03-23T14:21:52.271Z,25
2018-03-23T14:22:52.286Z,25
2018-03-23T14:23:52.585Z,25
2018-03-23T14:24:52.038Z,25
2018-03-23T14:25:52.340Z,25
2018-03-23T14:26:52.642Z,25
2018-03-23T14:27:52.174Z,25
2018-03-23T14:28:52.839Z,25
2018-03-23T14:29:52.145Z,25
2018-03-23T14:30:51.860Z,25
2018-03-23T14:31:52.466Z,25